JAL517 RJTT-RJCC
Flight info
| Callsign | JAL517 |
|---|---|
| Flight time | 1h 9m |
| Altitude | 41000 |
| Route | BRUCE AGRIS Y11 SAMBO Y119 OHMAR Y13 SIRAO Y139 NAVER |
| Aircraft | A359/H-SDE2E3GHIJ3J4J5LM1ORWXY/LB1D1 |
Departure
| Time | 2026-02-18 11:51 |
|---|---|
| Airport | Tokyo Haneda International Airport (RJTT) |
Arrival
| Time | 2026-02-18 13:01 |
|---|---|
| Airport | New Chitose Airport (RJCC) |
| Time | Latitude | Longitude | Altitude | Speed | Heading |
|---|---|---|---|---|---|
| 2026-02-18 11:25 | 35.54958 | 139.78223 | 74 ft | 0 kts | 61° |
| 2026-02-18 11:38 | 35.54956 | 139.78219 | 74 ft | 3 kts | 61° |
| 2026-02-18 11:38 | 35.54947 | 139.78199 | 74 ft | 3 kts | 61° |
| 2026-02-18 11:38 | 35.54938 | 139.78179 | 64 ft | 3 kts | 61° |
| 2026-02-18 11:38 | 35.54929 | 139.78159 | 64 ft | 3 kts | 67° |
| 2026-02-18 11:39 | 35.54923 | 139.78136 | 67 ft | 3 kts | 88° |
| 2026-02-18 11:39 | 35.54925 | 139.78112 | 64 ft | 2 kts | 105° |
| 2026-02-18 11:39 | 35.54930 | 139.78092 | 64 ft | 2 kts | 105° |
| 2026-02-18 11:39 | 35.54934 | 139.78072 | 64 ft | 2 kts | 105° |
| 2026-02-18 11:40 | 35.54941 | 139.78050 | 64 ft | 3 kts | 125° |
| 2026-02-18 11:40 | 35.54951 | 139.78034 | 64 ft | 2 kts | 128° |
| 2026-02-18 11:40 | 35.54963 | 139.78018 | 64 ft | 2 kts | 143° |
| 2026-02-18 11:40 | 35.54966 | 139.78016 | 64 ft | 0 kts | 142° |
| 2026-02-18 11:42 | 35.54964 | 139.78018 | 64 ft | 4 kts | 142° |
| 2026-02-18 11:43 | 35.54923 | 139.78047 | 64 ft | 8 kts | 152° |
| 2026-02-18 11:43 | 35.54865 | 139.78089 | 66 ft | 11 kts | 148° |
| 2026-02-18 11:43 | 35.54801 | 139.78138 | 64 ft | 11 kts | 148° |
| 2026-02-18 11:43 | 35.54728 | 139.78188 | 64 ft | 14 kts | 151° |
| 2026-02-18 11:44 | 35.54639 | 139.78250 | 64 ft | 13 kts | 150° |
| 2026-02-18 11:44 | 35.54555 | 139.78311 | 58 ft | 14 kts | 149° |
| 2026-02-18 11:44 | 35.54463 | 139.78377 | 71 ft | 16 kts | 149° |
| 2026-02-18 11:44 | 35.54361 | 139.78450 | 67 ft | 17 kts | 149° |
| 2026-02-18 11:45 | 35.54298 | 139.78559 | 67 ft | 8 kts | 78° |
| 2026-02-18 11:45 | 35.54360 | 139.78700 | 64 ft | 12 kts | 58° |
| 2026-02-18 11:45 | 35.54408 | 139.78798 | 64 ft | 15 kts | 58° |
| 2026-02-18 11:46 | 35.54466 | 139.78914 | 65 ft | 16 kts | 59° |
| 2026-02-18 11:46 | 35.54527 | 139.79045 | 72 ft | 19 kts | 60° |
| 2026-02-18 11:46 | 35.54593 | 139.79188 | 67 ft | 20 kts | 60° |
| 2026-02-18 11:46 | 35.54663 | 139.79335 | 63 ft | 21 kts | 59° |
| 2026-02-18 11:47 | 35.54740 | 139.79495 | 67 ft | 23 kts | 59° |
| 2026-02-18 11:47 | 35.54801 | 139.79643 | 70 ft | 12 kts | 85° |
| 2026-02-18 11:47 | 35.54775 | 139.79684 | 66 ft | 6 kts | 145° |
| 2026-02-18 11:47 | 35.54729 | 139.79721 | 67 ft | 10 kts | 147° |
| 2026-02-18 11:48 | 35.54663 | 139.79768 | 62 ft | 13 kts | 152° |
| 2026-02-18 11:48 | 35.54578 | 139.79826 | 64 ft | 15 kts | 149° |
| 2026-02-18 11:48 | 35.54477 | 139.79899 | 64 ft | 18 kts | 149° |
| 2026-02-18 11:48 | 35.54360 | 139.79984 | 66 ft | 21 kts | 149° |
| 2026-02-18 11:49 | 35.54226 | 139.80075 | 65 ft | 24 kts | 150° |
| 2026-02-18 11:49 | 35.53928 | 139.80298 | 66 ft | 22 kts | 128° |
| 2026-02-18 11:49 | 35.53953 | 139.80443 | 68 ft | 18 kts | 57° |
| 2026-02-18 11:50 | 35.54029 | 139.80463 | 66 ft | 11 kts | 338° |
| 2026-02-18 11:50 | 35.54044 | 139.80455 | 62 ft | 0 kts | 333° |
| 2026-02-18 11:50 | 35.54057 | 139.80447 | 67 ft | 5 kts | 333° |
| 2026-02-18 11:51 | 35.54310 | 139.80270 | 72 ft | 81 kts | 329° |
| 2026-02-18 11:51 | 35.55010 | 139.79776 | 70 ft | 148 kts | 330° |
| 2026-02-18 11:51 | 35.55962 | 139.79082 | 588 ft | 159 kts | 329° |
| 2026-02-18 11:51 | 35.56920 | 139.78374 | 1321 ft | 165 kts | 340° |
| 2026-02-18 11:52 | 35.58072 | 139.78140 | 1839 ft | 177 kts | 9° |
| 2026-02-18 11:52 | 35.59196 | 139.78845 | 2160 ft | 193 kts | 45° |
| 2026-02-18 11:52 | 35.60127 | 139.80136 | 2639 ft | 212 kts | 50° |
| 2026-02-18 11:52 | 35.61200 | 139.81528 | 3077 ft | 237 kts | 44° |
| 2026-02-18 11:53 | 35.62565 | 139.82810 | 3608 ft | 254 kts | 37° |
| 2026-02-18 11:53 | 35.65805 | 139.84853 | 5071 ft | 271 kts | 13° |
| 2026-02-18 11:53 | 35.67669 | 139.85323 | 5812 ft | 277 kts | 8° |
| 2026-02-18 11:54 | 35.69602 | 139.85532 | 6502 ft | 280 kts | 352° |
| 2026-02-18 11:54 | 35.71439 | 139.84898 | 7297 ft | 271 kts | 327° |
| 2026-02-18 11:54 | 35.73006 | 139.83642 | 8149 ft | 268 kts | 319° |
| 2026-02-18 11:54 | 35.74583 | 139.82390 | 8974 ft | 275 kts | 328° |
| 2026-02-18 11:55 | 35.76480 | 139.81839 | 9772 ft | 291 kts | 355° |
| 2026-02-18 11:55 | 35.78496 | 139.82373 | 10409 ft | 306 kts | 14° |
| 2026-02-18 11:55 | 35.80549 | 139.83367 | 10740 ft | 326 kts | 18° |
| 2026-02-18 11:55 | 35.82691 | 139.84496 | 11047 ft | 344 kts | 18° |
| 2026-02-18 11:56 | 35.84929 | 139.85677 | 11485 ft | 355 kts | 18° |
| 2026-02-18 11:56 | 35.87188 | 139.86867 | 12075 ft | 360 kts | 18° |
| 2026-02-18 11:56 | 35.89586 | 139.87875 | 12675 ft | 358 kts | 6° |
| 2026-02-18 11:56 | 35.91997 | 139.87985 | 13305 ft | 348 kts | 345° |
| 2026-02-18 11:57 | 35.94316 | 139.87196 | 13962 ft | 341 kts | 333° |
| 2026-02-18 11:57 | 35.98958 | 139.85636 | 15146 ft | 359 kts | 348° |
| 2026-02-18 11:57 | 36.00780 | 139.85565 | 15574 ft | 365 kts | 353° |
| 2026-02-18 11:58 | 36.03337 | 139.85644 | 16158 ft | 370 kts | 354° |
| 2026-02-18 11:58 | 36.05923 | 139.85801 | 16731 ft | 374 kts | 355° |
| 2026-02-18 11:58 | 36.08536 | 139.86034 | 17305 ft | 379 kts | 356° |
| 2026-02-18 11:58 | 36.11177 | 139.86327 | 17875 ft | 383 kts | 356° |
| 2026-02-18 11:59 | 36.13840 | 139.86659 | 18397 ft | 387 kts | 357° |
| 2026-02-18 11:59 | 36.15651 | 139.86900 | 18728 ft | 389 kts | 357° |
| 2026-02-18 11:59 | 36.19231 | 139.87391 | 19405 ft | 392 kts | 357° |
| 2026-02-18 11:59 | 36.21954 | 139.87762 | 19913 ft | 395 kts | 356° |
| 2026-02-18 12:00 | 36.24693 | 139.88126 | 20411 ft | 397 kts | 356° |
| 2026-02-18 12:00 | 36.27449 | 139.88485 | 20913 ft | 400 kts | 356° |
| 2026-02-18 12:00 | 36.29324 | 139.88726 | 21244 ft | 401 kts | 356° |
| 2026-02-18 12:00 | 36.32110 | 139.89082 | 21743 ft | 404 kts | 355° |
| 2026-02-18 12:01 | 36.34913 | 139.89438 | 22238 ft | 406 kts | 355° |
| 2026-02-18 12:01 | 36.40578 | 139.90157 | 23221 ft | 411 kts | 355° |
| 2026-02-18 12:01 | 36.43433 | 139.90521 | 23665 ft | 414 kts | 355° |
| 2026-02-18 12:02 | 36.46307 | 139.90887 | 24077 ft | 417 kts | 355° |
| 2026-02-18 12:02 | 36.49204 | 139.91257 | 24485 ft | 420 kts | 354° |
| 2026-02-18 12:02 | 36.52079 | 139.91625 | 24887 ft | 422 kts | 354° |
| 2026-02-18 12:02 | 36.55011 | 139.92000 | 25296 ft | 425 kts | 354° |
| 2026-02-18 12:03 | 36.57962 | 139.92379 | 25713 ft | 428 kts | 354° |
| 2026-02-18 12:03 | 36.60937 | 139.92760 | 26151 ft | 431 kts | 354° |
| 2026-02-18 12:03 | 36.63932 | 139.93144 | 26608 ft | 434 kts | 354° |
| 2026-02-18 12:03 | 36.66948 | 139.93531 | 27070 ft | 437 kts | 354° |
| 2026-02-18 12:04 | 36.69983 | 139.93921 | 27551 ft | 440 kts | 354° |
| 2026-02-18 12:04 | 36.73037 | 139.94314 | 28043 ft | 444 kts | 354° |
| 2026-02-18 12:04 | 36.76119 | 139.94710 | 28540 ft | 447 kts | 354° |
| 2026-02-18 12:04 | 36.79226 | 139.95111 | 29033 ft | 450 kts | 354° |
| 2026-02-18 12:05 | 36.82354 | 139.95514 | 29521 ft | 454 kts | 354° |
| 2026-02-18 12:05 | 36.88692 | 139.96521 | 30373 ft | 468 kts | 358° |
| 2026-02-18 12:05 | 36.91908 | 139.97270 | 30749 ft | 473 kts | 359° |
| 2026-02-18 12:06 | 36.95156 | 139.98071 | 31125 ft | 477 kts | 360° |
| 2026-02-18 12:06 | 36.98419 | 139.98903 | 31497 ft | 482 kts | 0° |
| 2026-02-18 12:06 | 37.01714 | 139.99756 | 31844 ft | 485 kts | 0° |
| 2026-02-18 12:06 | 37.05036 | 140.00624 | 32214 ft | 489 kts | 0° |
| 2026-02-18 12:07 | 37.08383 | 140.01501 | 32560 ft | 493 kts | 0° |
| 2026-02-18 12:07 | 37.11746 | 140.02384 | 32903 ft | 496 kts | 0° |
| 2026-02-18 12:07 | 37.15138 | 140.03273 | 33218 ft | 499 kts | 0° |
| 2026-02-18 12:07 | 37.18543 | 140.04162 | 33521 ft | 502 kts | 0° |
| 2026-02-18 12:08 | 37.25435 | 140.05952 | 34083 ft | 508 kts | 0° |
| 2026-02-18 12:08 | 37.28907 | 140.06852 | 34349 ft | 511 kts | 0° |
| 2026-02-18 12:08 | 37.32391 | 140.07753 | 34650 ft | 512 kts | 0° |
| 2026-02-18 12:09 | 37.35880 | 140.08663 | 35020 ft | 511 kts | 0° |
| 2026-02-18 12:09 | 37.42795 | 140.10471 | 35784 ft | 510 kts | 0° |
| 2026-02-18 12:09 | 37.46272 | 140.11378 | 36145 ft | 511 kts | 0° |
| 2026-02-18 12:10 | 37.49752 | 140.12286 | 36491 ft | 511 kts | 0° |
| 2026-02-18 12:10 | 37.53235 | 140.13194 | 36837 ft | 511 kts | 0° |
| 2026-02-18 12:10 | 37.56719 | 140.14104 | 37201 ft | 511 kts | 0° |
| 2026-02-18 12:10 | 37.60195 | 140.15011 | 37578 ft | 511 kts | 360° |
| 2026-02-18 12:11 | 37.63683 | 140.15923 | 37944 ft | 511 kts | 360° |
| 2026-02-18 12:11 | 37.67167 | 140.16834 | 38298 ft | 511 kts | 360° |
| 2026-02-18 12:11 | 37.70647 | 140.17745 | 38629 ft | 511 kts | 359° |
| 2026-02-18 12:11 | 37.74130 | 140.18654 | 38888 ft | 512 kts | 360° |
| 2026-02-18 12:12 | 37.77637 | 140.19570 | 39008 ft | 516 kts | 360° |
| 2026-02-18 12:12 | 37.81164 | 140.20492 | 39124 ft | 520 kts | 0° |
| 2026-02-18 12:12 | 37.84716 | 140.21422 | 39216 ft | 523 kts | 0° |
| 2026-02-18 12:12 | 37.88292 | 140.22362 | 39318 ft | 526 kts | 0° |
| 2026-02-18 12:13 | 37.91885 | 140.23309 | 39422 ft | 528 kts | 0° |
| 2026-02-18 12:13 | 37.99080 | 140.25194 | 39749 ft | 528 kts | 360° |
| 2026-02-18 12:13 | 38.02681 | 140.26129 | 39923 ft | 528 kts | 0° |
| 2026-02-18 12:14 | 38.06277 | 140.27068 | 40080 ft | 528 kts | 0° |
| 2026-02-18 12:14 | 38.09873 | 140.28012 | 40232 ft | 528 kts | 0° |
| 2026-02-18 12:14 | 38.13470 | 140.28963 | 40367 ft | 528 kts | 0° |
| 2026-02-18 12:14 | 38.17064 | 140.29914 | 40518 ft | 527 kts | 0° |
| 2026-02-18 12:15 | 38.20654 | 140.30868 | 40661 ft | 527 kts | 0° |
| 2026-02-18 12:15 | 38.24247 | 140.31823 | 40791 ft | 527 kts | 0° |
| 2026-02-18 12:15 | 38.27837 | 140.32779 | 40909 ft | 527 kts | 0° |
| 2026-02-18 12:15 | 38.31430 | 140.33735 | 40931 ft | 527 kts | 0° |
| 2026-02-18 12:16 | 38.38612 | 140.35655 | 40928 ft | 528 kts | 1° |
| 2026-02-18 12:16 | 38.45786 | 140.37831 | 40927 ft | 531 kts | 3° |
| 2026-02-18 12:17 | 38.56524 | 140.41352 | 40920 ft | 531 kts | 4° |
| 2026-02-18 12:18 | 38.63691 | 140.43689 | 40919 ft | 531 kts | 3° |
| 2026-02-18 12:18 | 38.70843 | 140.46004 | 40919 ft | 531 kts | 3° |
| 2026-02-18 12:19 | 38.77953 | 140.48302 | 40914 ft | 530 kts | 4° |
| 2026-02-18 12:19 | 38.85116 | 140.50619 | 40915 ft | 530 kts | 4° |
| 2026-02-18 12:20 | 38.92272 | 140.52941 | 40906 ft | 530 kts | 4° |
| 2026-02-18 12:20 | 38.99424 | 140.55267 | 40914 ft | 530 kts | 4° |
| 2026-02-18 12:21 | 39.06578 | 140.57603 | 41144 ft | 530 kts | 4° |
| 2026-02-18 12:21 | 39.13732 | 140.59947 | 41444 ft | 530 kts | 4° |
| 2026-02-18 12:21 | 39.17302 | 140.61119 | 41577 ft | 530 kts | 4° |
| 2026-02-18 12:22 | 39.20880 | 140.62296 | 41707 ft | 530 kts | 4° |
| 2026-02-18 12:22 | 39.24461 | 140.63474 | 41847 ft | 530 kts | 4° |
| 2026-02-18 12:22 | 39.28036 | 140.64652 | 41982 ft | 530 kts | 4° |
| 2026-02-18 12:22 | 39.31607 | 140.65830 | 42104 ft | 530 kts | 4° |
| 2026-02-18 12:23 | 39.35177 | 140.67008 | 42232 ft | 530 kts | 4° |
| 2026-02-18 12:23 | 39.38755 | 140.68189 | 42374 ft | 530 kts | 4° |
| 2026-02-18 12:23 | 39.42325 | 140.69369 | 42487 ft | 530 kts | 4° |
| 2026-02-18 12:23 | 39.45843 | 140.70535 | 42586 ft | 530 kts | 4° |
| 2026-02-18 12:24 | 39.49416 | 140.71720 | 42703 ft | 530 kts | 4° |
| 2026-02-18 12:24 | 39.52987 | 140.72905 | 42821 ft | 530 kts | 4° |
| 2026-02-18 12:24 | 39.60136 | 140.75275 | 42888 ft | 530 kts | 4° |
| 2026-02-18 12:25 | 39.70849 | 140.78842 | 43054 ft | 531 kts | 5° |
| 2026-02-18 12:25 | 39.74436 | 140.80039 | 42896 ft | 532 kts | 5° |
| 2026-02-18 12:26 | 39.78024 | 140.81237 | 42884 ft | 533 kts | 5° |
| 2026-02-18 12:26 | 39.85224 | 140.83646 | 42884 ft | 535 kts | 6° |
| 2026-02-18 12:27 | 39.92432 | 140.86066 | 42878 ft | 535 kts | 6° |
| 2026-02-18 12:27 | 39.99646 | 140.88494 | 42875 ft | 536 kts | 6° |
| 2026-02-18 12:28 | 40.06860 | 140.90927 | 42870 ft | 536 kts | 6° |
| 2026-02-18 12:28 | 40.14075 | 140.93363 | 42864 ft | 535 kts | 6° |
| 2026-02-18 12:29 | 40.21320 | 140.94985 | 42859 ft | 522 kts | 355° |
| 2026-02-18 12:29 | 40.32153 | 140.95607 | 42848 ft | 518 kts | 353° |
| 2026-02-18 12:30 | 40.39351 | 140.95821 | 42848 ft | 517 kts | 353° |
| 2026-02-18 12:30 | 40.46491 | 140.96026 | 42844 ft | 517 kts | 353° |
| 2026-02-18 12:31 | 40.53743 | 140.96256 | 42833 ft | 517 kts | 354° |
| 2026-02-18 12:31 | 40.60885 | 140.96496 | 42826 ft | 517 kts | 354° |
| 2026-02-18 12:32 | 40.68082 | 140.96735 | 42836 ft | 517 kts | 353° |
| 2026-02-18 12:32 | 40.75261 | 140.96904 | 42829 ft | 516 kts | 352° |
| 2026-02-18 12:33 | 40.86022 | 140.97184 | 42827 ft | 515 kts | 353° |
| 2026-02-18 12:34 | 40.93185 | 140.97416 | 42825 ft | 515 kts | 353° |
| 2026-02-18 12:34 | 41.00347 | 140.97658 | 42815 ft | 515 kts | 353° |
| 2026-02-18 12:35 | 41.07504 | 140.97901 | 42810 ft | 514 kts | 353° |
| 2026-02-18 12:35 | 41.14652 | 140.98142 | 42799 ft | 514 kts | 353° |
| 2026-02-18 12:36 | 41.21807 | 140.98384 | 42796 ft | 514 kts | 353° |
| 2026-02-18 12:36 | 41.28963 | 140.98789 | 42790 ft | 520 kts | 359° |
| 2026-02-18 12:36 | 41.32547 | 140.99720 | 42781 ft | 531 kts | 8° |
| 2026-02-18 12:37 | 41.36081 | 141.01189 | 42781 ft | 534 kts | 11° |
| 2026-02-18 12:37 | 41.43097 | 141.04527 | 42650 ft | 535 kts | 13° |
| 2026-02-18 12:37 | 41.46560 | 141.06263 | 42124 ft | 531 kts | 13° |
| 2026-02-18 12:38 | 41.50014 | 141.08004 | 41441 ft | 530 kts | 14° |
| 2026-02-18 12:38 | 41.53462 | 141.09737 | 40752 ft | 530 kts | 14° |
| 2026-02-18 12:38 | 41.56918 | 141.11466 | 40070 ft | 530 kts | 14° |
| 2026-02-18 12:38 | 41.60370 | 141.13186 | 39386 ft | 530 kts | 14° |
| 2026-02-18 12:39 | 41.63824 | 141.14902 | 38704 ft | 530 kts | 14° |
| 2026-02-18 12:39 | 41.67285 | 141.16620 | 37926 ft | 530 kts | 14° |
| 2026-02-18 12:39 | 41.70738 | 141.18345 | 37104 ft | 530 kts | 15° |
| 2026-02-18 12:39 | 41.74186 | 141.20082 | 36295 ft | 529 kts | 15° |
| 2026-02-18 12:40 | 41.77628 | 141.21826 | 35506 ft | 528 kts | 15° |
| 2026-02-18 12:40 | 41.81056 | 141.23569 | 34721 ft | 526 kts | 16° |
| 2026-02-18 12:40 | 41.84475 | 141.25310 | 33925 ft | 525 kts | 17° |
| 2026-02-18 12:40 | 41.87881 | 141.27047 | 33000 ft | 524 kts | 17° |
| 2026-02-18 12:41 | 41.91287 | 141.28785 | 32002 ft | 524 kts | 17° |
| 2026-02-18 12:41 | 41.97743 | 141.33281 | 30322 ft | 526 kts | 37° |
| 2026-02-18 12:41 | 42.00482 | 141.36515 | 29658 ft | 522 kts | 41° |
| 2026-02-18 12:42 | 42.03112 | 141.39837 | 28918 ft | 516 kts | 43° |
| 2026-02-18 12:42 | 42.05662 | 141.43111 | 28603 ft | 511 kts | 43° |
| 2026-02-18 12:42 | 42.08215 | 141.46391 | 27927 ft | 505 kts | 44° |
| 2026-02-18 12:42 | 42.10747 | 141.49649 | 27183 ft | 502 kts | 44° |
| 2026-02-18 12:43 | 42.13394 | 141.52689 | 26467 ft | 498 kts | 34° |
| 2026-02-18 12:43 | 42.16338 | 141.55104 | 25817 ft | 493 kts | 29° |
| 2026-02-18 12:43 | 42.19325 | 141.57323 | 25169 ft | 489 kts | 28° |
| 2026-02-18 12:43 | 42.22276 | 141.59481 | 24355 ft | 472 kts | 28° |
| 2026-02-18 12:44 | 42.25127 | 141.61568 | 22851 ft | 463 kts | 28° |
| 2026-02-18 12:44 | 42.27946 | 141.63649 | 21026 ft | 460 kts | 29° |
| 2026-02-18 12:44 | 42.30724 | 141.65715 | 19482 ft | 451 kts | 30° |
| 2026-02-18 12:44 | 42.33429 | 141.67736 | 18487 ft | 433 kts | 30° |
| 2026-02-18 12:45 | 42.36039 | 141.69690 | 17830 ft | 428 kts | 30° |
| 2026-02-18 12:45 | 42.41215 | 141.73583 | 16400 ft | 422 kts | 30° |
| 2026-02-18 12:45 | 42.42907 | 141.74856 | 15942 ft | 420 kts | 30° |
| 2026-02-18 12:46 | 42.46304 | 141.77412 | 15040 ft | 415 kts | 29° |
| 2026-02-18 12:46 | 42.48816 | 141.79301 | 14389 ft | 411 kts | 29° |
| 2026-02-18 12:46 | 42.51300 | 141.81170 | 13763 ft | 406 kts | 29° |
| 2026-02-18 12:46 | 42.52928 | 141.82396 | 13408 ft | 401 kts | 29° |
| 2026-02-18 12:47 | 42.56160 | 141.84828 | 12540 ft | 394 kts | 28° |
| 2026-02-18 12:47 | 42.58649 | 141.86294 | 11878 ft | 388 kts | 14° |
| 2026-02-18 12:47 | 42.60398 | 141.86640 | 11453 ft | 382 kts | 0° |
| 2026-02-18 12:47 | 42.63029 | 141.86526 | 10926 ft | 373 kts | 353° |
| 2026-02-18 12:48 | 42.65551 | 141.86251 | 10772 ft | 355 kts | 352° |
| 2026-02-18 12:48 | 42.67962 | 141.85980 | 10647 ft | 339 kts | 352° |
| 2026-02-18 12:48 | 42.70265 | 141.85732 | 10493 ft | 325 kts | 352° |
| 2026-02-18 12:48 | 42.72473 | 141.85504 | 10367 ft | 312 kts | 353° |
| 2026-02-18 12:49 | 42.74608 | 141.85290 | 10067 ft | 305 kts | 352° |
| 2026-02-18 12:49 | 42.78827 | 141.84866 | 9276 ft | 302 kts | 352° |
| 2026-02-18 12:49 | 42.80915 | 141.84648 | 8860 ft | 300 kts | 352° |
| 2026-02-18 12:50 | 42.82969 | 141.84271 | 8446 ft | 297 kts | 346° |
| 2026-02-18 12:50 | 42.84984 | 141.83691 | 8048 ft | 294 kts | 344° |
| 2026-02-18 12:50 | 42.86975 | 141.83071 | 7637 ft | 293 kts | 344° |
| 2026-02-18 12:50 | 42.88955 | 141.82443 | 7269 ft | 290 kts | 344° |
| 2026-02-18 12:51 | 42.90912 | 141.81823 | 6921 ft | 288 kts | 344° |
| 2026-02-18 12:51 | 42.92855 | 141.81207 | 6582 ft | 286 kts | 344° |
| 2026-02-18 12:51 | 42.94781 | 141.80597 | 6351 ft | 280 kts | 344° |
| 2026-02-18 12:51 | 42.96647 | 141.80006 | 6203 ft | 271 kts | 344° |
| 2026-02-18 12:52 | 42.98450 | 141.79435 | 6052 ft | 262 kts | 343° |
| 2026-02-18 12:52 | 43.00150 | 141.78720 | 5892 ft | 250 kts | 331° |
| 2026-02-18 12:52 | 43.01581 | 141.77485 | 5729 ft | 238 kts | 318° |
| 2026-02-18 12:52 | 43.02835 | 141.76076 | 5606 ft | 228 kts | 310° |
| 2026-02-18 12:53 | 43.03768 | 141.74430 | 5480 ft | 212 kts | 292° |
| 2026-02-18 12:53 | 43.04167 | 141.70748 | 4912 ft | 192 kts | 253° |
| 2026-02-18 12:53 | 43.03749 | 141.69045 | 4608 ft | 187 kts | 242° |
| 2026-02-18 12:54 | 43.03133 | 141.67526 | 4415 ft | 180 kts | 230° |
| 2026-02-18 12:54 | 43.02263 | 141.66343 | 4215 ft | 175 kts | 214° |
| 2026-02-18 12:54 | 43.01169 | 141.65654 | 4076 ft | 174 kts | 195° |
| 2026-02-18 12:54 | 42.99994 | 141.65383 | 3938 ft | 174 kts | 185° |
| 2026-02-18 12:55 | 42.98786 | 141.65448 | 3793 ft | 173 kts | 177° |
| 2026-02-18 12:55 | 42.97589 | 141.65648 | 3669 ft | 174 kts | 175° |
| 2026-02-18 12:55 | 42.96395 | 141.65869 | 3545 ft | 173 kts | 175° |
| 2026-02-18 12:55 | 42.95206 | 141.66088 | 3413 ft | 172 kts | 175° |
| 2026-02-18 12:56 | 42.94018 | 141.66305 | 3260 ft | 172 kts | 175° |
| 2026-02-18 12:56 | 42.92842 | 141.66529 | 3034 ft | 167 kts | 174° |
| 2026-02-18 12:56 | 42.91723 | 141.66741 | 2796 ft | 154 kts | 175° |
| 2026-02-18 12:56 | 42.90734 | 141.66925 | 2579 ft | 138 kts | 174° |
| 2026-02-18 12:57 | 42.88997 | 141.67252 | 2228 ft | 118 kts | 173° |
| 2026-02-18 12:57 | 42.88185 | 141.67406 | 2056 ft | 118 kts | 173° |
| 2026-02-18 12:57 | 42.87374 | 141.67556 | 1891 ft | 118 kts | 173° |
| 2026-02-18 12:58 | 42.86563 | 141.67687 | 1725 ft | 117 kts | 172° |
| 2026-02-18 12:58 | 42.85760 | 141.67855 | 1580 ft | 117 kts | 171° |
| 2026-02-18 12:58 | 42.84960 | 141.68046 | 1381 ft | 116 kts | 169° |
| 2026-02-18 12:58 | 42.84163 | 141.68227 | 1183 ft | 116 kts | 172° |
| 2026-02-18 12:59 | 42.83362 | 141.68333 | 969 ft | 115 kts | 173° |
| 2026-02-18 12:59 | 42.82574 | 141.68455 | 840 ft | 114 kts | 169° |
| 2026-02-18 12:59 | 42.81783 | 141.68617 | 707 ft | 116 kts | 168° |
| 2026-02-18 12:59 | 42.80994 | 141.68786 | 535 ft | 114 kts | 168° |
| 2026-02-18 13:00 | 42.80214 | 141.68929 | 394 ft | 113 kts | 168° |
| 2026-02-18 13:00 | 42.79432 | 141.69063 | 229 ft | 112 kts | 167° |
| 2026-02-18 13:00 | 42.78659 | 141.69212 | 129 ft | 113 kts | 168° |
| 2026-02-18 13:00 | 42.77910 | 141.69358 | 88 ft | 94 kts | 173° |
| 2026-02-18 13:01 | 42.77277 | 141.69371 | 86 ft | 33 kts | 199° |
| 2026-02-18 13:01 | 42.77085 | 141.69229 | 89 ft | 21 kts | 246° |
| 2026-02-18 13:01 | 42.77066 | 141.68991 | 86 ft | 30 kts | 272° |
| 2026-02-18 13:02 | 42.77236 | 141.68865 | 87 ft | 27 kts | 352° |
| 2026-02-18 13:02 | 42.77427 | 141.68830 | 91 ft | 26 kts | 353° |
| 2026-02-18 13:02 | 42.77619 | 141.68799 | 92 ft | 29 kts | 353° |
| 2026-02-18 13:02 | 42.77828 | 141.68764 | 92 ft | 31 kts | 353° |
| 2026-02-18 13:03 | 42.78010 | 141.68657 | 93 ft | 28 kts | 303° |
| 2026-02-18 13:03 | 42.78145 | 141.68485 | 93 ft | 26 kts | 328° |
| 2026-02-18 13:03 | 42.78276 | 141.68338 | 95 ft | 23 kts | 305° |
| 2026-02-18 13:03 | 42.78377 | 141.68221 | 92 ft | 17 kts | 330° |
| 2026-02-18 13:04 | 42.78453 | 141.68152 | 94 ft | 6 kts | 323° |
| 2026-02-18 13:04 | 42.78482 | 141.68123 | 94 ft | 5 kts | 323° |
| 2026-02-18 13:04 | 42.78498 | 141.68107 | 95 ft | 0 kts | 323° |